createdAt,value
2023-03-31T00:02:39.060Z,9.40
2023-03-31T00:06:01.254Z,9.34
2023-03-31T00:09:35.787Z,9.34
2023-03-31T00:12:51.414Z,9.30
2023-03-31T00:16:18.611Z,9.29
2023-03-31T00:19:52.441Z,9.26
2023-03-31T00:23:11.215Z,9.23
2023-03-31T00:26:37.983Z,9.22
2023-03-31T00:30:05.549Z,9.24
2023-03-31T00:33:26.719Z,9.21
2023-03-31T00:36:51.189Z,9.16
2023-03-31T00:40:10.842Z,9.14
2023-03-31T00:43:30.314Z,9.03
2023-03-31T00:47:34.471Z,8.89
2023-03-31T00:51:08.541Z,8.88
2023-03-31T00:54:28.062Z,8.81
2023-03-31T00:57:48.480Z,8.65
2023-03-31T01:01:25.030Z,8.52
2023-03-31T01:04:51.121Z,8.37
2023-03-31T01:08:20.293Z,8.32
2023-03-31T01:11:48.620Z,8.15
2023-03-31T01:15:07.406Z,8.02
2023-03-31T01:18:40.873Z,7.95
2023-03-31T01:22:50.258Z,7.94
2023-03-31T01:26:39.466Z,7.80
2023-03-31T01:30:34.556Z,7.78
2023-03-31T01:34:28.873Z,7.75
2023-03-31T01:38:21.332Z,7.88
2023-03-31T01:41:55.905Z,8.08
2023-03-31T01:45:59.537Z,7.97
2023-03-31T01:49:45.106Z,7.96
2023-03-31T01:53:17.468Z,7.92
2023-03-31T01:57:05.678Z,7.83
2023-03-31T02:00:40.282Z,7.91
2023-03-31T02:04:38.091Z,7.85
2023-03-31T02:07:54.984Z,7.89
2023-03-31T02:11:17.088Z,7.88
2023-03-31T02:14:47.754Z,7.89
2023-03-31T02:18:14.373Z,7.83
2023-03-31T02:21:50.604Z,7.81
2023-03-31T02:25:20.088Z,7.72
2023-03-31T02:28:40.990Z,7.71
2023-03-31T02:32:34.128Z,7.65
2023-03-31T02:36:09.496Z,7.55
2023-03-31T02:39:47.537Z,7.53
2023-03-31T02:43:12.115Z,7.47
2023-03-31T02:46:40.456Z,7.39
2023-03-31T02:50:06.115Z,7.33
2023-03-31T02:53:55.045Z,7.22
2023-03-31T02:57:34.023Z,7.21
2023-03-31T03:01:19.835Z,7.14
2023-03-31T03:05:03.964Z,7.05
2023-03-31T03:08:50.629Z,6.91
2023-03-31T03:12:29.355Z,6.88
2023-03-31T03:15:56.376Z,6.92
2023-03-31T03:19:23.910Z,6.97
2023-03-31T03:22:41.298Z,7.04
2023-03-31T03:26:11.414Z,7.10
2023-03-31T03:29:38.434Z,7.07
2023-03-31T03:33:18.977Z,7.05
2023-03-31T03:36:50.668Z,7.06
2023-03-31T03:40:23.762Z,7.02
2023-03-31T03:43:38.257Z,7.07
2023-03-31T03:47:15.310Z,7.04
2023-03-31T03:50:52.973Z,7.00
2023-03-31T03:54:27.174Z,7.01
2023-03-31T03:57:54.990Z,6.91
2023-03-31T04:01:09.693Z,6.74
2023-03-31T04:04:34.254Z,6.55
2023-03-31T04:07:55.258Z,6.46
2023-03-31T04:11:28.260Z,6.55
2023-03-31T04:14:51.320Z,6.53
2023-03-31T04:18:24.945Z,6.41
2023-03-31T04:21:47.165Z,6.34
2023-03-31T04:25:15.214Z,6.24
2023-03-31T04:28:51.120Z,6.13
2023-03-31T04:32:23.349Z,5.97
2023-03-31T04:35:50.002Z,5.87
2023-03-31T04:39:16.394Z,5.90
2023-03-31T04:42:45.448Z,5.80
2023-03-31T04:46:22.232Z,5.76
2023-03-31T04:50:01.093Z,5.76
2023-03-31T04:53:39.089Z,5.92
2023-03-31T04:56:59.536Z,6.12
2023-03-31T05:00:27.084Z,6.02
2023-03-31T05:04:01.268Z,5.97
2023-03-31T05:07:45.507Z,6.03
2023-03-31T05:10:56.731Z,6.23
2023-03-31T05:14:27.632Z,6.25
2023-03-31T05:18:02.094Z,6.23
2023-03-31T05:21:38.076Z,6.39
2023-03-31T05:25:13.392Z,6.45
2023-03-31T05:28:32.539Z,6.57
2023-03-31T05:31:54.104Z,6.66
2023-03-31T05:35:43.281Z,6.72
2023-03-31T05:39:36.942Z,6.82
2023-03-31T05:43:19.016Z,7.11
2023-03-31T05:46:55.756Z,7.57
2023-03-31T05:50:23.642Z,7.94
2023-03-31T05:53:59.417Z,8.08
2023-03-31T05:57:46.590Z,8.27
2023-03-31T06:01:23.231Z,8.45
2023-03-31T06:05:00.907Z,8.53
2023-03-31T06:08:40.965Z,8.69
2023-03-31T06:12:05.801Z,8.81
2023-03-31T06:15:40.063Z,8.82
2023-03-31T06:19:21.459Z,8.91
2023-03-31T06:22:56.308Z,9.04
2023-03-31T06:26:18.970Z,9.11
2023-03-31T06:29:52.886Z,9.51
2023-03-31T06:33:26.909Z,9.81
2023-03-31T06:36:46.446Z,10.14
2023-03-31T06:40:23.183Z,10.42
2023-03-31T06:43:58.786Z,10.53
2023-03-31T06:47:27.096Z,10.73
2023-03-31T06:51:02.852Z,10.93
2023-03-31T06:54:37.626Z,11.04
2023-03-31T06:57:52.574Z,11.39
2023-03-31T07:01:27.989Z,11.62
2023-03-31T07:04:56.642Z,11.66
2023-03-31T07:08:24.504Z,11.80
2023-03-31T07:12:05.591Z,11.83
2023-03-31T07:15:32.165Z,12.03
2023-03-31T07:18:50.599Z,12.16
2023-03-31T07:22:23.978Z,12.09
2023-03-31T07:25:43.522Z,12.45
2023-03-31T07:29:20.664Z,12.00
2023-03-31T07:32:40.212Z,12.50
2023-03-31T07:36:10.831Z,12.68
2023-03-31T07:39:26.488Z,12.25
2023-03-31T07:42:52.553Z,12.58
2023-03-31T07:46:27.399Z,13.26
2023-03-31T07:49:45.339Z,13.80
2023-03-31T07:53:23.770Z,14.22
2023-03-31T07:56:53.158Z,14.65
2023-03-31T08:00:16.263Z,14.65
2023-03-31T08:03:55.843Z,14.97
2023-03-31T08:07:31.158Z,14.95
2023-03-31T08:10:51.323Z,15.01
2023-03-31T08:14:16.501Z,15.71
2023-03-31T08:17:42.599Z,14.07
2023-03-31T08:21:20.158Z,15.35
2023-03-31T08:24:45.425Z,16.06
2023-03-31T08:28:02.074Z,16.65
2023-03-31T08:31:26.738Z,17.07
2023-03-31T08:34:43.932Z,15.57
2023-03-31T08:38:01.713Z,15.19
2023-03-31T08:41:41.912Z,15.57
2023-03-31T08:45:01.657Z,16.37
2023-03-31T08:48:45.473Z,17.03
2023-03-31T08:52:20.316Z,17.61
2023-03-31T08:55:59.699Z,18.53
2023-03-31T08:59:45.243Z,19.08
2023-03-31T09:03:19.096Z,19.06
2023-03-31T09:07:04.142Z,19.12
2023-03-31T09:10:56.479Z,19.49
2023-03-31T09:14:35.655Z,19.44
2023-03-31T09:17:58.289Z,19.25
2023-03-31T09:21:51.960Z,18.24
2023-03-31T09:25:43.251Z,19.03
2023-03-31T09:29:31.965Z,20.77
2023-03-31T09:33:13.329Z,20.42
2023-03-31T09:36:55.596Z,21.36
2023-03-31T09:40:22.573Z,21.78
2023-03-31T09:43:52.822Z,22.05
2023-03-31T09:47:29.804Z,22.29
2023-03-31T09:51:09.552Z,22.36
2023-03-31T09:54:52.020Z,21.68
2023-03-31T09:58:26.311Z,22.38
2023-03-31T10:02:00.439Z,20.54
2023-03-31T10:05:37.785Z,21.48
2023-03-31T10:09:10.440Z,21.08
2023-03-31T10:12:37.602Z,21.19
2023-03-31T10:16:53.691Z,21.16
2023-03-31T10:20:02.712Z,20.82
2023-03-31T10:23:51.374Z,20.85
2023-03-31T10:27:21.386Z,19.76
2023-03-31T10:30:45.083Z,18.62
2023-03-31T10:34:19.090Z,19.03
2023-03-31T10:37:37.313Z,19.38
2023-03-31T10:41:00.555Z,18.10
2023-03-31T10:44:37.966Z,19.23
2023-03-31T10:48:02.038Z,19.01
2023-03-31T10:55:36.024Z,18.96
2023-03-31T10:59:06.731Z,18.82
2023-03-31T11:02:48.722Z,20.12
2023-03-31T11:06:34.438Z,18.72
2023-03-31T11:10:29.777Z,20.65
2023-03-31T11:14:20.539Z,21.03
2023-03-31T11:18:06.138Z,20.31
2023-03-31T11:21:59.988Z,22.59
2023-03-31T11:25:35.832Z,23.15
2023-03-31T11:29:26.222Z,21.83
2023-03-31T11:33:06.242Z,22.20
2023-03-31T11:36:57.611Z,21.15
2023-03-31T11:40:35.030Z,21.98
2023-03-31T11:44:11.064Z,21.67
2023-03-31T11:47:49.267Z,21.91
2023-03-31T11:51:14.790Z,21.39
2023-03-31T11:55:27.499Z,21.42
2023-03-31T11:58:53.470Z,20.60
2023-03-31T12:02:19.190Z,20.00
2023-03-31T12:05:49.820Z,19.32
2023-03-31T12:09:41.022Z,19.13
2023-03-31T12:13:34.675Z,19.56
2023-03-31T12:16:54.571Z,20.16
2023-03-31T12:20:47.516Z,19.84
2023-03-31T12:24:15.326Z,21.19
2023-03-31T12:27:50.107Z,21.44
2023-03-31T12:31:15.126Z,21.17
2023-03-31T12:35:00.357Z,21.87
2023-03-31T12:38:28.732Z,21.64
2023-03-31T12:42:11.267Z,20.49
2023-03-31T12:45:33.811Z,21.55
2023-03-31T12:49:20.305Z,21.42
2023-03-31T12:52:53.203Z,20.04
2023-03-31T12:56:49.212Z,20.38
2023-03-31T13:00:12.771Z,19.07
2023-03-31T13:03:49.361Z,19.92
2023-03-31T13:07:46.586Z,20.10
2023-03-31T13:11:37.592Z,20.05
2023-03-31T13:15:14.992Z,20.15
2023-03-31T13:18:56.257Z,20.14
2023-03-31T13:22:47.551Z,20.44
2023-03-31T13:26:35.733Z,20.17
2023-03-31T13:29:52.228Z,19.42
2023-03-31T13:33:12.047Z,19.53
2023-03-31T13:36:57.244Z,19.43
2023-03-31T13:40:25.216Z,19.21
2023-03-31T13:43:43.873Z,18.88
2023-03-31T13:46:57.492Z,18.73
2023-03-31T13:50:11.092Z,18.35
2023-03-31T13:53:40.480Z,18.20
2023-03-31T13:57:14.476Z,18.51
2023-03-31T14:00:33.093Z,18.11
2023-03-31T14:03:55.567Z,17.81
2023-03-31T14:07:07.799Z,17.88
2023-03-31T14:10:36.630Z,18.12
2023-03-31T14:13:43.548Z,18.35
2023-03-31T14:17:02.905Z,18.01
2023-03-31T14:20:31.581Z,18.27
2023-03-31T14:23:58.993Z,18.11
2023-03-31T14:27:48.658Z,18.20
2023-03-31T14:31:24.099Z,18.42
2023-03-31T14:34:33.167Z,18.51
2023-03-31T14:37:38.815Z,18.59
2023-03-31T14:40:57.797Z,18.41
2023-03-31T14:44:13.000Z,18.77
2023-03-31T14:47:28.659Z,19.53
2023-03-31T14:50:37.435Z,19.27
2023-03-31T14:53:40.838Z,18.87
2023-03-31T14:56:55.374Z,19.05
2023-03-31T15:00:01.285Z,19.48
2023-03-31T15:03:15.521Z,18.80
2023-03-31T15:06:22.478Z,18.17
2023-03-31T15:09:35.069Z,17.98
2023-03-31T15:12:38.577Z,17.93
2023-03-31T15:16:31.730Z,17.69
2023-03-31T15:19:36.233Z,17.86
2023-03-31T15:22:49.233Z,17.40
2023-03-31T15:26:15.614Z,17.43
2023-03-31T15:29:36.948Z,17.28
2023-03-31T15:32:40.436Z,17.04
2023-03-31T15:35:46.858Z,16.89
2023-03-31T15:38:57.532Z,16.71
2023-03-31T15:42:08.574Z,16.65
2023-03-31T15:45:31.380Z,16.58
2023-03-31T15:48:48.741Z,16.45
2023-03-31T15:51:54.536Z,16.35
2023-03-31T15:55:22.555Z,16.21
2023-03-31T15:58:56.453Z,16.12
2023-03-31T16:02:01.247Z,15.92
2023-03-31T16:08:48.836Z,15.89
2023-03-31T16:11:56.594Z,15.71
2023-03-31T16:15:28.420Z,15.75
2023-03-31T16:18:54.602Z,15.82
2023-03-31T16:22:02.512Z,15.40
2023-03-31T16:25:14.515Z,15.22
2023-03-31T16:28:24.750Z,14.99
2023-03-31T16:31:42.497Z,14.90
2023-03-31T16:35:05.911Z,14.75
2023-03-31T16:38:12.800Z,14.67
2023-03-31T16:41:19.474Z,14.62
2023-03-31T16:44:22.309Z,14.49
2023-03-31T16:47:35.017Z,14.44
2023-03-31T16:50:44.799Z,14.36
2023-03-31T16:53:48.650Z,14.35
2023-03-31T16:57:11.334Z,14.30
2023-03-31T17:00:19.618Z,14.25
2023-03-31T17:03:23.333Z,14.23
2023-03-31T17:06:31.362Z,14.10
2023-03-31T17:09:34.000Z,14.06
2023-03-31T17:12:41.848Z,14.01
2023-03-31T17:15:49.625Z,14.00
2023-03-31T17:19:18.482Z,13.88
2023-03-31T17:22:41.799Z,13.87
2023-03-31T17:25:53.738Z,13.77
2023-03-31T17:28:57.503Z,13.78
2023-03-31T17:32:25.721Z,13.69
2023-03-31T17:35:28.827Z,13.65
2023-03-31T17:38:32.763Z,13.62
2023-03-31T17:41:55.578Z,13.58
2023-03-31T17:45:20.747Z,13.55
2023-03-31T17:48:26.677Z,13.47
2023-03-31T17:51:32.846Z,13.59
2023-03-31T17:54:35.829Z,13.44
2023-03-31T17:58:13.895Z,13.52
2023-03-31T18:01:22.081Z,13.55
2023-03-31T18:04:29.676Z,13.36
2023-03-31T18:07:36.155Z,13.32
2023-03-31T18:10:46.329Z,13.30
2023-03-31T18:14:12.124Z,13.19
2023-03-31T18:17:25.299Z,13.05
2023-03-31T18:20:48.895Z,13.06
2023-03-31T18:23:57.603Z,12.99
2023-03-31T18:27:00.728Z,12.90
2023-03-31T18:30:08.663Z,12.85
2023-03-31T18:33:33.872Z,12.81
2023-03-31T18:36:42.503Z,12.81
2023-03-31T18:39:51.676Z,12.78
2023-03-31T18:42:55.930Z,12.79
2023-03-31T18:46:01.413Z,12.78
2023-03-31T18:49:05.945Z,12.75
2023-03-31T18:52:08.889Z,12.71
2023-03-31T18:55:23.391Z,12.69
2023-03-31T18:58:48.726Z,12.59
2023-03-31T19:01:56.850Z,12.53
2023-03-31T19:05:02.269Z,12.44
2023-03-31T19:08:08.518Z,12.34
2023-03-31T19:11:16.217Z,12.15
2023-03-31T19:14:19.716Z,12.10
2023-03-31T19:17:22.852Z,11.99
2023-03-31T19:20:47.235Z,12.03
2023-03-31T19:24:10.076Z,12.16
2023-03-31T19:27:39.642Z,12.14
2023-03-31T19:31:07.188Z,12.14
2023-03-31T19:34:11.789Z,12.12
2023-03-31T19:37:17.647Z,11.92
2023-03-31T19:40:57.257Z,11.93
2023-03-31T19:44:26.106Z,11.76
2023-03-31T19:48:16.458Z,11.63
2023-03-31T19:51:56.300Z,11.52
2023-03-31T19:55:13.719Z,11.38
2023-03-31T19:58:39.841Z,11.23
2023-03-31T20:02:08.138Z,11.11
2023-03-31T20:09:28.066Z,10.81
2023-03-31T20:12:56.802Z,10.58
2023-03-31T20:16:31.970Z,10.45
2023-03-31T20:19:59.647Z,10.29
2023-03-31T20:23:34.888Z,10.12
2023-03-31T20:26:50.826Z,10.01
2023-03-31T20:30:18.187Z,9.90
2023-03-31T20:33:46.327Z,9.81
2023-03-31T20:37:30.294Z,9.71
2023-03-31T20:41:06.005Z,9.56
2023-03-31T20:44:33.518Z,9.47
2023-03-31T20:47:37.920Z,9.41
2023-03-31T20:51:09.847Z,9.39
2023-03-31T20:54:51.835Z,9.37
2023-03-31T20:58:22.485Z,9.34
2023-03-31T21:01:40.120Z,9.26
2023-03-31T21:05:07.682Z,9.27
2023-03-31T21:08:43.404Z,9.18
2023-03-31T21:12:02.245Z,9.15
2023-03-31T21:15:36.329Z,9.09
2023-03-31T21:19:11.177Z,9.13
2023-03-31T21:22:53.699Z,9.13
2023-03-31T21:26:25.646Z,9.10
2023-03-31T21:29:59.482Z,9.06
2023-03-31T21:33:17.723Z,9.08
2023-03-31T21:36:53.644Z,9.04
2023-03-31T21:40:29.871Z,9.09
2023-03-31T21:43:56.381Z,9.00
2023-03-31T21:47:23.740Z,9.07
2023-03-31T21:50:41.299Z,9.07
2023-03-31T21:54:08.338Z,9.01
2023-03-31T21:57:42.218Z,8.98
2023-03-31T22:01:10.168Z,8.93
2023-03-31T22:04:39.159Z,8.94
2023-03-31T22:08:07.594Z,8.97
2023-03-31T22:11:33.908Z,8.94
2023-03-31T22:14:51.563Z,8.93
2023-03-31T22:18:08.687Z,8.92
2023-03-31T22:21:35.970Z,8.89
2023-03-31T22:25:00.133Z,8.87
2023-03-31T22:28:39.406Z,8.81
2023-03-31T22:31:56.357Z,8.81
2023-03-31T22:35:28.913Z,8.83
2023-03-31T22:38:43.978Z,8.77
2023-03-31T22:42:08.436Z,8.80
2023-03-31T22:45:38.175Z,8.82
2023-03-31T22:48:55.642Z,8.83
2023-03-31T22:52:22.400Z,8.84
2023-03-31T22:55:54.448Z,8.82
2023-03-31T22:59:16.173Z,8.78
2023-03-31T23:03:07.784Z,8.78
2023-03-31T23:06:34.793Z,8.65
2023-03-31T23:10:22.977Z,8.58
2023-03-31T23:13:37.733Z,8.48
2023-03-31T23:17:10.756Z,8.42
2023-03-31T23:20:29.763Z,8.31
2023-03-31T23:24:01.882Z,8.26
2023-03-31T23:27:16.676Z,8.24
2023-03-31T23:30:57.309Z,8.19
2023-03-31T23:34:23.754Z,8.14
2023-03-31T23:37:55.433Z,8.10
2023-03-31T23:41:35.303Z,8.06
2023-03-31T23:44:52.322Z,8.04
2023-03-31T23:48:43.136Z,8.08
2023-03-31T23:51:57.783Z,8.05
2023-03-31T23:55:25.070Z,8.04
2023-03-31T23:58:52.350Z,8.02
